Billet, Illinois
Current Conditions -  °F | °C
As of 7:53 AM on Thursday 23 Oct 2014 (Local Time) from KLWV Reporting Station
Haze Haze  
Wind Chill: 40°   Ceiling: Unl
Heat Index: 40°   Visibility: 3mi
Dew Point: 39°   Wind: 0mph
Humidity: 97%   Direction: NA
Pressure: 30.26"   Gusts: NA
Location:  38.7501°N, 87.6141°W
Report Text: KLWV 231253Z AUTO 00000KT 3SM BR CLR 04/04 A3026 RMK AO2 SLP250 T00440039
Loading
Personal Weather Stations






























Interactive Weather Map
Tropical Storm Tracking
New forecast layout! Learn more

10-Day Weather Forecast

Advertisements
Track Severe Weather on mobile